Skip to main content

NOAA/GLERL Met Station at Michigan City, IN

Previous 5 days (top of hour only)
See also Previous 3 Hours (2 minute increments)
Jump down to Data
Switch to [English][Metric]
Zoom: Click and drag, Pan: shift-click and drag, Unzoom: double-click, Unzoom All





Note: Speed = mean wind during 2-minute period at top of hour,
Gust = max wind during 2-minute period at top of hour,
Peak = max wind during entire hour.
• See also 5-day windrose plot


NOAA/GLERL Met Station at Michigan City, IN

Previous 5 days (top of hour only)
See also Previous 3 Hours (2 minute increments)
Jump up to Graphs
Switch to [English][Metric]
                  Wind  Wind  Wind   Air   Dew   Rel     Sta   PAR
                   Spd   Gst   Dir  Temp    Pt   Hum    Pres uE/m2/
YYYY-MM-DD   CDT   m/s   m/s   deg     C     C     %      mb   sec
2018-09-26 04:00  14.1  15.6   310  15.9  12.1  77.9    0.00     0
2018-09-26 03:00  13.5  15.4   312  16.5  13.6  82.6    0.00     0
2018-09-26 02:00  13.5  14.7   305  17.9  14.4  79.8    0.00     0
2018-09-26 01:00  11.5  12.3   287  18.9  15.7  81.3    0.00     0
2018-09-26 00:00  11.3  12.6   305  19.3  16.1  81.5    0.00     0
2018-09-25 23:00  10.8  11.9   238  20.1  18.3  89.0    0.00     0
2018-09-25 22:00   5.4   7.0   178  19.3  17.9  91.4    0.00     0
2018-09-25 21:00   6.2   7.4   154  19.0  17.1  88.7    0.00     0
2018-09-25 20:00   4.9   5.6   165  19.2  16.4  83.5    0.00     0
2018-09-25 19:00  18.9  21.4   275  20.7  17.8  83.3    0.00     0
2018-09-25 18:00   5.4   6.6   161  25.7  20.3  71.7    0.00    82
2018-09-25 17:00   6.0   7.4   167  26.2  20.5  70.4    0.00   492
2018-09-25 16:00   6.6   8.8   186  26.1  19.9  68.0    0.00   735
2018-09-25 15:00   6.6   7.7   184  25.2  20.0  72.4    0.00   616
2018-09-25 14:00   6.9   8.1   178  24.6  20.2  76.0    0.00   978
2018-09-25 13:00   7.5   9.5   179  24.2  20.0  77.0    0.00   684
2018-09-25 12:00   4.5   5.7   182  23.6  20.2  80.7    0.00   973
2018-09-25 11:00   5.3   5.7   185  22.2  19.9  86.6    0.00   724
2018-09-25 10:00   3.3   3.7   210  21.8  20.2  90.2    0.00   553
2018-09-25 09:00   3.6   3.8   192  21.3  20.1  92.6    0.00   490
2018-09-25 08:00   2.9   3.2   127  20.6  20.0  96.0    0.00   260
2018-09-25 07:00   2.3   2.6   123  20.5  20.1  97.4    0.00     0
2018-09-25 06:00   3.0   3.5   140  20.6  20.1  96.6    0.00     0
2018-09-25 05:00   3.2   3.9   155  20.5  19.9  96.1    0.00     0
2018-09-25 04:00   4.5   6.1   181  20.4  19.6  95.2    0.00     0
2018-09-25 03:00   4.4   5.7   180  20.4  19.5  94.7    0.00     0
2018-09-25 02:00   5.9   7.0   166  20.2  19.3  94.5    0.00     0
2018-09-25 01:00   4.9   6.3   144  20.4  19.4  93.9    0.00     0
2018-09-25 00:00   4.4   5.2   149  20.5  19.3  92.5    0.00     0
2018-09-24 23:00   5.2   5.8   139  20.3  19.0  92.3    0.00     0
2018-09-24 22:00   5.3   6.3   139  20.5  18.7  89.3    0.00     0
2018-09-24 21:00   3.4   3.9   117  20.2  18.3  88.9    0.00     0
2018-09-24 20:00   2.8   3.2    95  20.7  18.1  85.0    0.00     0
2018-09-24 19:00   2.5   3.0    96  21.4  18.1  81.0    0.00     0
2018-09-24 18:00   3.1   4.5   114  21.4  17.9  80.4    0.00    82
2018-09-24 17:00   4.8   6.9   118  20.9  17.6  81.2    0.00   329
2018-09-24 16:00   5.0   5.5   133  21.2  17.3  78.3    0.00   493
2018-09-24 15:00   4.9   6.1   120  20.9  17.2  79.0    0.00   248
2018-09-24 14:00   5.0   7.4   119  21.4  17.3  77.1    0.00   328
2018-09-24 13:00   4.9   6.1   100  21.4  17.0  75.9    0.00   590
2018-09-24 12:00   4.9   7.6   107  20.1  16.7  80.3    0.00   888
2018-09-24 11:00   4.6   6.5   103  18.7  15.9  83.8    0.00   591
2018-09-24 10:00   4.0   5.5   100  17.8  15.3  85.1    0.00   411
2018-09-24 09:00   4.0   5.0   114  17.4  14.2  81.1    0.00   808
2018-09-24 08:00   4.2   5.5   108  15.6  13.1  84.8    0.00   411
2018-09-24 07:00   6.5   7.8   103  14.6  12.6  87.8    0.00    82
2018-09-24 06:00   4.6   5.6   107  14.6  12.6  87.9    0.00     0
2018-09-24 05:00   5.2   7.6   112  14.8  12.7  87.0    0.00     0
2018-09-24 04:00   6.0   7.7   108  14.7  12.6  86.8    0.00     0
2018-09-24 03:00   6.8   9.6   107  14.7  12.2  85.0    0.00     0
2018-09-24 02:00   6.1   8.3   104  14.9  11.7  81.0    0.00     0
2018-09-24 01:00   6.6   8.3   101  15.4  11.0  74.7    0.00     0
2018-09-24 00:00   6.1   7.9    97  15.9  11.2  73.5    0.00     0
2018-09-23 23:00   5.1   6.3    82  16.3  11.6  73.2    0.00     0
2018-09-23 22:00   4.1   4.8    78  16.8  11.9  72.4    0.00     0
2018-09-23 21:00   5.7   6.2    76  17.9  11.9  67.5    0.00     0
2018-09-23 20:00   4.5   5.0    52  18.2  15.9  86.5    0.00     0
2018-09-23 19:00   8.1   8.9    38  18.4  15.1  80.9    0.00     0
2018-09-23 18:00   8.6   9.2    30  18.0  14.5  79.7    0.00   164
2018-09-23 17:00   8.3   8.9    24  17.6  13.7  77.5    0.00   493
2018-09-23 16:00   8.1   9.4    23  17.3  13.8  79.4    0.00   830
2018-09-23 15:00   8.4   9.0    15  17.1  13.7  80.2    0.00  1067
2018-09-23 14:00   9.3   9.7     1  17.4  13.5  77.5    0.00  1231
2018-09-23 13:00   3.9   4.3    31  19.0  10.9  58.8    0.00  1321
2018-09-23 12:00   4.0   5.1    81  18.5  10.2  58.0    0.00  1367
2018-09-23 11:00   3.7   4.2    49  17.2  11.1  67.0    0.00  1232
2018-09-23 10:00   2.6   3.1    86  16.4  10.6  68.3    0.00   988
2018-09-23 09:00   3.4   4.0   114  14.4  10.7  78.2    0.00   822
2018-09-23 08:00   5.2   6.6   120  12.1   9.5  83.8    0.00   411
2018-09-23 07:00   4.5   5.2   123  10.6   9.1  90.4    0.00    82
2018-09-23 06:00   4.5   5.2   117  10.9   9.3  89.5    0.00     0
2018-09-23 05:00   4.4   5.2   116  11.1   9.4  89.1    0.00     0
2018-09-23 04:00   3.7   4.4   113  11.2   9.2  87.2    0.00     0
2018-09-23 03:00   2.9   3.5   112  11.3   9.0  85.9    0.00     0
2018-09-23 02:00   2.4   2.8   119  11.8   9.3  84.6    0.00     0
2018-09-23 01:00   2.1   2.6   112  11.6   9.4  86.0    0.00     0
2018-09-23 00:00   1.8   2.1   111  12.1   9.6  84.6    0.00     0
2018-09-22 23:00   3.3   3.9   112  12.6   9.3  80.0    0.00     0
2018-09-22 22:00   3.1   3.8   105  13.5   9.6  77.2    0.00     0
2018-09-22 21:00   4.1   4.5    74  14.4   9.1  70.4    0.00     0
2018-09-22 20:00   3.6   4.1    62  15.5   9.7  68.0    0.00     0
2018-09-22 19:00   6.0   6.8    34  15.9  10.1  68.2    0.00     0
2018-09-22 18:00   6.1   6.9    28  15.7   9.4  65.7    0.00   164
2018-09-22 17:00   6.8   7.9    16  15.5   9.6  67.5    0.00   494
2018-09-22 16:00   7.5   8.8    11  15.3   9.1  66.3    0.00   903
2018-09-22 15:00   7.1   8.4   356  15.6   9.4  66.1    0.00  1067
2018-09-22 14:00   7.0   7.8   352  15.4   8.7  64.1    0.00  1314
2018-09-22 13:00   5.6   6.5    16  15.1   7.8  61.2    0.00  1396
2018-09-22 12:00   3.0   4.3    50  14.2   7.1  62.1    0.00  1397
2018-09-22 11:00   1.6   2.6    51  13.0   6.3  63.6    0.00  1265
2018-09-22 10:00   5.2   6.4    32  12.0   6.2  67.2    0.00   908
2018-09-22 09:00   7.9   8.8    48  11.8   6.1  68.0    0.00   901
2018-09-22 08:00   8.5   9.6    60  11.8   5.9  67.0    0.00   240
2018-09-22 07:00   8.5   9.9    62  12.2   5.7  64.1    0.00    31
2018-09-22 06:00   7.8   8.7    57  12.6   6.5  66.0    0.00     0
2018-09-22 05:00  12.6  13.9    17  14.0   6.6  60.6    0.00     0
2018-09-22 04:00   9.5  11.7    36  14.3   7.9  65.1    0.00     0
2018-09-22 03:00  12.5  13.3    22  15.2   7.9  61.2    0.00     0
2018-09-22 02:00  13.8  15.0    19  15.6   9.5  66.9    0.00     0
2018-09-22 01:00  15.1  16.2     9  16.2  10.8  70.2    0.00     0
2018-09-22 00:00  13.8  15.9   352  16.4   9.3  62.4    0.00     0
2018-09-21 23:00  14.6  16.2   340  16.9  10.4  65.1    0.00     0
2018-09-21 22:00  14.4  16.3   338  17.3  11.9  70.4    0.00     0
2018-09-21 21:00  15.8  17.2   322  17.8  10.4  61.4    0.00     0
2018-09-21 20:00  14.5  15.9   330  18.3  11.3  63.4    0.00     0
2018-09-21 19:00  15.0  16.7   325  19.3  12.4  63.7    0.00     0